sensor_id;sensor_type;location;lat;lon;timestamp;P1;durP1;ratioP1;P2;durP2;ratioP2
54921;SDS011;40824;45.116;21.296;2022-12-11T00:02:19;9.23;;;7.10;;
54921;SDS011;40824;45.116;21.296;2022-12-11T00:04:48;9.75;;;7.32;;
54921;SDS011;40824;45.116;21.296;2022-12-11T00:07:14;9.25;;;6.82;;
54921;SDS011;40824;45.116;21.296;2022-12-11T00:09:43;8.80;;;7.28;;
54921;SDS011;40824;45.116;21.296;2022-12-11T00:12:09;11.80;;;7.30;;
54921;SDS011;40824;45.116;21.296;2022-12-11T00:14:38;9.90;;;6.97;;
54921;SDS011;40824;45.116;21.296;2022-12-11T00:17:04;11.80;;;7.65;;
54921;SDS011;40824;45.116;21.296;2022-12-11T00:19:31;8.30;;;7.10;;
54921;SDS011;40824;45.116;21.296;2022-12-11T00:21:59;9.52;;;7.80;;
54921;SDS011;40824;45.116;21.296;2022-12-11T00:24:31;10.00;;;8.25;;
54921;SDS011;40824;45.116;21.296;2022-12-11T00:26:57;9.07;;;7.65;;
54921;SDS011;40824;45.116;21.296;2022-12-11T00:29:23;11.93;;;7.50;;
54921;SDS011;40824;45.116;21.296;2022-12-11T00:31:49;9.93;;;7.93;;
54921;SDS011;40824;45.116;21.296;2022-12-11T00:34:16;11.93;;;8.70;;
54921;SDS011;40824;45.116;21.296;2022-12-11T00:36:45;14.73;;;7.90;;
54921;SDS011;40824;45.116;21.296;2022-12-11T00:39:11;10.55;;;7.70;;
54921;SDS011;40824;45.116;21.296;2022-12-11T00:41:37;13.95;;;8.90;;
54921;SDS011;40824;45.116;21.296;2022-12-11T00:44:03;10.20;;;5.35;;
54921;SDS011;40824;45.116;21.296;2022-12-11T00:46:32;7.05;;;3.75;;
54921;SDS011;40824;45.116;21.296;2022-12-11T00:49:03;5.30;;;3.42;;
54921;SDS011;40824;45.116;21.296;2022-12-11T00:51:29;11.25;;;4.00;;
54921;SDS011;40824;45.116;21.296;2022-12-11T00:53:58;5.13;;;3.53;;
54921;SDS011;40824;45.116;21.296;2022-12-11T00:57:04;6.80;;;4.32;;
54921;SDS011;40824;45.116;21.296;2022-12-11T00:59:30;6.00;;;3.92;;
54921;SDS011;40824;45.116;21.296;2022-12-11T01:01:56;4.43;;;3.25;;
54921;SDS011;40824;45.116;21.296;2022-12-11T01:04:22;5.57;;;4.05;;
54921;SDS011;40824;45.116;21.296;2022-12-11T01:06:49;6.22;;;3.75;;
54921;SDS011;40824;45.116;21.296;2022-12-11T01:09:15;5.72;;;4.45;;
54921;SDS011;40824;45.116;21.296;2022-12-11T01:11:59;7.22;;;4.80;;
54921;SDS011;40824;45.116;21.296;2022-12-11T01:14:28;7.40;;;4.72;;
54921;SDS011;40824;45.116;21.296;2022-12-11T01:16:59;8.05;;;3.88;;
54921;SDS011;40824;45.116;21.296;2022-12-11T01:19:26;5.10;;;3.95;;
54921;SDS011;40824;45.116;21.296;2022-12-11T01:21:52;5.43;;;4.18;;
54921;SDS011;40824;45.116;21.296;2022-12-11T01:24:29;8.07;;;4.50;;
54921;SDS011;40824;45.116;21.296;2022-12-11T01:29:39;5.95;;;4.72;;
54921;SDS011;40824;45.116;21.296;2022-12-11T01:32:39;5.10;;;3.47;;
54921;SDS011;40824;45.116;21.296;2022-12-11T01:35:13;4.75;;;2.88;;
54921;SDS011;40824;45.116;21.296;2022-12-11T01:37:39;4.13;;;2.92;;
54921;SDS011;40824;45.116;21.296;2022-12-11T01:40:06;3.55;;;2.40;;
54921;SDS011;40824;45.116;21.296;2022-12-11T01:42:33;4.22;;;2.92;;
54921;SDS011;40824;45.116;21.296;2022-12-11T01:47:47;3.28;;;1.88;;
54921;SDS011;40824;45.116;21.296;2022-12-11T01:50:27;3.20;;;1.80;;
54921;SDS011;40824;45.116;21.296;2022-12-11T01:52:53;3.45;;;2.30;;
54921;SDS011;40824;45.116;21.296;2022-12-11T01:55:42;3.55;;;2.10;;
54921;SDS011;40824;45.116;21.296;2022-12-11T01:58:12;4.05;;;2.40;;
54921;SDS011;40824;45.116;21.296;2022-12-11T02:00:41;4.18;;;2.80;;
54921;SDS011;40824;45.116;21.296;2022-12-11T02:03:07;4.30;;;1.95;;
54921;SDS011;40824;45.116;21.296;2022-12-11T02:05:33;3.60;;;2.10;;
54921;SDS011;40824;45.116;21.296;2022-12-11T02:07:59;3.78;;;2.40;;
54921;SDS011;40824;45.116;21.296;2022-12-11T02:10:30;3.70;;;2.40;;
54921;SDS011;40824;45.116;21.296;2022-12-11T02:16:04;4.25;;;2.67;;
54921;SDS011;40824;45.116;21.296;2022-12-11T02:18:36;3.42;;;2.45;;
54921;SDS011;40824;45.116;21.296;2022-12-11T02:21:19;4.55;;;2.90;;
54921;SDS011;40824;45.116;21.296;2022-12-11T02:29:00;4.18;;;2.65;;
54921;SDS011;40824;45.116;21.296;2022-12-11T02:32:12;4.47;;;3.05;;
54921;SDS011;40824;45.116;21.296;2022-12-11T02:34:30;5.35;;;3.90;;
54921;SDS011;40824;45.116;21.296;2022-12-11T02:36:58;5.07;;;2.97;;
54921;SDS011;40824;45.116;21.296;2022-12-11T02:39:27;4.20;;;3.15;;
54921;SDS011;40824;45.116;21.296;2022-12-11T02:41:53;4.13;;;2.80;;
54921;SDS011;40824;45.116;21.296;2022-12-11T02:44:23;3.47;;;2.50;;
54921;SDS011;40824;45.116;21.296;2022-12-11T02:46:50;4.47;;;2.72;;
54921;SDS011;40824;45.116;21.296;2022-12-11T02:49:17;3.60;;;2.80;;
54921;SDS011;40824;45.116;21.296;2022-12-11T02:51:49;3.70;;;2.50;;
54921;SDS011;40824;45.116;21.296;2022-12-11T02:54:21;3.88;;;2.30;;
54921;SDS011;40824;45.116;21.296;2022-12-11T02:59:36;5.07;;;2.75;;
54921;SDS011;40824;45.116;21.296;2022-12-11T03:02:09;3.72;;;2.70;;
54921;SDS011;40824;45.116;21.296;2022-12-11T03:04:41;5.18;;;2.90;;
54921;SDS011;40824;45.116;21.296;2022-12-11T03:07:12;4.20;;;2.53;;
54921;SDS011;40824;45.116;21.296;2022-12-11T03:09:44;4.68;;;2.97;;
54921;SDS011;40824;45.116;21.296;2022-12-11T03:12:11;3.25;;;2.30;;
54921;SDS011;40824;45.116;21.296;2022-12-11T03:14:39;3.70;;;2.67;;
54921;SDS011;40824;45.116;21.296;2022-12-11T03:22:36;5.65;;;2.78;;
54921;SDS011;40824;45.116;21.296;2022-12-11T03:25:06;5.95;;;3.80;;
54921;SDS011;40824;45.116;21.296;2022-12-11T03:27:37;3.85;;;3.00;;
54921;SDS011;40824;45.116;21.296;2022-12-11T03:30:15;5.22;;;3.28;;
54921;SDS011;40824;45.116;21.296;2022-12-11T03:32:43;4.97;;;3.25;;
54921;SDS011;40824;45.116;21.296;2022-12-11T03:35:25;4.73;;;3.20;;
54921;SDS011;40824;45.116;21.296;2022-12-11T03:37:53;4.63;;;2.95;;
54921;SDS011;40824;45.116;21.296;2022-12-11T03:40:22;4.65;;;2.90;;
54921;SDS011;40824;45.116;21.296;2022-12-11T03:42:50;4.35;;;2.78;;
54921;SDS011;40824;45.116;21.296;2022-12-11T03:45:19;3.70;;;2.75;;
54921;SDS011;40824;45.116;21.296;2022-12-11T03:47:49;4.68;;;3.15;;
54921;SDS011;40824;45.116;21.296;2022-12-11T03:50:22;4.95;;;3.30;;
54921;SDS011;40824;45.116;21.296;2022-12-11T03:52:56;5.13;;;3.60;;
54921;SDS011;40824;45.116;21.296;2022-12-11T03:55:23;5.45;;;3.42;;
54921;SDS011;40824;45.116;21.296;2022-12-11T03:57:49;5.07;;;3.38;;
54921;SDS011;40824;45.116;21.296;2022-12-11T04:00:21;6.22;;;3.60;;
54921;SDS011;40824;45.116;21.296;2022-12-11T04:02:51;4.72;;;3.28;;
54921;SDS011;40824;45.116;21.296;2022-12-11T04:05:38;5.28;;;4.18;;
54921;SDS011;40824;45.116;21.296;2022-12-11T04:08:06;6.10;;;4.28;;
54921;SDS011;40824;45.116;21.296;2022-12-11T04:10:35;6.43;;;4.70;;
54921;SDS011;40824;45.116;21.296;2022-12-11T04:13:01;6.93;;;4.90;;
54921;SDS011;40824;45.116;21.296;2022-12-11T04:15:33;7.32;;;4.68;;
54921;SDS011;40824;45.116;21.296;2022-12-11T04:18:09;7.47;;;5.70;;
54921;SDS011;40824;45.116;21.296;2022-12-11T04:20:54;7.80;;;5.43;;
54921;SDS011;40824;45.116;21.296;2022-12-11T04:23:39;6.75;;;5.22;;
54921;SDS011;40824;45.116;21.296;2022-12-11T04:26:24;8.85;;;6.00;;
54921;SDS011;40824;45.116;21.296;2022-12-11T04:28:53;8.70;;;5.43;;
54921;SDS011;40824;45.116;21.296;2022-12-11T04:31:20;7.70;;;5.43;;
54921;SDS011;40824;45.116;21.296;2022-12-11T04:33:47;6.70;;;5.78;;
54921;SDS011;40824;45.116;21.296;2022-12-11T04:36:24;9.18;;;6.18;;
54921;SDS011;40824;45.116;21.296;2022-12-11T04:41:40;11.50;;;6.57;;
54921;SDS011;40824;45.116;21.296;2022-12-11T04:44:06;9.82;;;7.15;;
54921;SDS011;40824;45.116;21.296;2022-12-11T04:46:33;11.00;;;7.05;;
54921;SDS011;40824;45.116;21.296;2022-12-11T04:49:06;13.10;;;7.43;;
54921;SDS011;40824;45.116;21.296;2022-12-11T04:51:34;9.00;;;7.03;;
54921;SDS011;40824;45.116;21.296;2022-12-11T04:54:00;9.43;;;7.03;;
54921;SDS011;40824;45.116;21.296;2022-12-11T04:56:29;8.45;;;6.70;;
54921;SDS011;40824;45.116;21.296;2022-12-11T04:59:06;9.52;;;6.95;;
54921;SDS011;40824;45.116;21.296;2022-12-11T05:01:33;9.52;;;7.22;;
54921;SDS011;40824;45.116;21.296;2022-12-11T05:04:20;8.82;;;6.90;;
54921;SDS011;40824;45.116;21.296;2022-12-11T05:06:53;10.80;;;7.20;;
54921;SDS011;40824;45.116;21.296;2022-12-11T05:09:19;9.05;;;6.43;;
54921;SDS011;40824;45.116;21.296;2022-12-11T05:11:45;8.75;;;6.57;;
54921;SDS011;40824;45.116;21.296;2022-12-11T05:14:12;8.60;;;6.35;;
54921;SDS011;40824;45.116;21.296;2022-12-11T05:16:47;8.07;;;5.90;;
54921;SDS011;40824;45.116;21.296;2022-12-11T05:19:17;6.30;;;5.20;;
54921;SDS011;40824;45.116;21.296;2022-12-11T05:22:02;7.65;;;5.57;;
54921;SDS011;40824;45.116;21.296;2022-12-11T05:24:33;9.57;;;5.32;;
54921;SDS011;40824;45.116;21.296;2022-12-11T05:27:07;8.75;;;5.05;;
54921;SDS011;40824;45.116;21.296;2022-12-11T05:29:42;7.40;;;5.80;;
54921;SDS011;40824;45.116;21.296;2022-12-11T05:32:09;7.55;;;4.93;;
54921;SDS011;40824;45.116;21.296;2022-12-11T05:34:35;5.88;;;4.82;;
54921;SDS011;40824;45.116;21.296;2022-12-11T05:37:03;7.47;;;5.50;;
54921;SDS011;40824;45.116;21.296;2022-12-11T05:39:29;7.03;;;5.18;;
54921;SDS011;40824;45.116;21.296;2022-12-11T05:42:05;6.40;;;5.00;;
54921;SDS011;40824;45.116;21.296;2022-12-11T05:44:36;7.95;;;5.13;;
54921;SDS011;40824;45.116;21.296;2022-12-11T05:47:02;7.90;;;6.38;;
54921;SDS011;40824;45.116;21.296;2022-12-11T05:49:31;9.10;;;6.00;;
54921;SDS011;40824;45.116;21.296;2022-12-11T05:54:47;8.23;;;5.93;;
54921;SDS011;40824;45.116;21.296;2022-12-11T05:57:17;13.52;;;6.30;;
54921;SDS011;40824;45.116;21.296;2022-12-11T05:59:43;9.23;;;7.03;;
54921;SDS011;40824;45.116;21.296;2022-12-11T06:02:09;11.00;;;6.43;;
54921;SDS011;40824;45.116;21.296;2022-12-11T06:04:37;7.63;;;5.90;;
54921;SDS011;40824;45.116;21.296;2022-12-11T06:07:15;9.15;;;6.65;;
54921;SDS011;40824;45.116;21.296;2022-12-11T06:09:50;8.85;;;6.75;;
54921;SDS011;40824;45.116;21.296;2022-12-11T06:12:22;9.57;;;6.88;;
54921;SDS011;40824;45.116;21.296;2022-12-11T06:14:48;9.52;;;7.07;;
54921;SDS011;40824;45.116;21.296;2022-12-11T06:17:14;8.57;;;6.93;;
54921;SDS011;40824;45.116;21.296;2022-12-11T06:19:40;8.45;;;5.78;;
54921;SDS011;40824;45.116;21.296;2022-12-11T06:22:09;9.80;;;6.25;;
54921;SDS011;40824;45.116;21.296;2022-12-11T06:24:37;7.88;;;5.95;;
54921;SDS011;40824;45.116;21.296;2022-12-11T06:27:04;6.97;;;5.57;;
54921;SDS011;40824;45.116;21.296;2022-12-11T06:29:36;7.00;;;5.63;;
54921;SDS011;40824;45.116;21.296;2022-12-11T06:32:05;7.88;;;6.18;;
54921;SDS011;40824;45.116;21.296;2022-12-11T06:34:33;8.25;;;5.88;;
54921;SDS011;40824;45.116;21.296;2022-12-11T06:37:02;8.43;;;6.47;;
54921;SDS011;40824;45.116;21.296;2022-12-11T06:39:34;8.18;;;5.70;;
54921;SDS011;40824;45.116;21.296;2022-12-11T06:42:00;7.60;;;5.38;;
54921;SDS011;40824;45.116;21.296;2022-12-11T06:44:36;6.97;;;4.82;;
54921;SDS011;40824;45.116;21.296;2022-12-11T06:47:05;9.15;;;5.80;;
54921;SDS011;40824;45.116;21.296;2022-12-11T06:49:34;7.50;;;5.60;;
54921;SDS011;40824;45.116;21.296;2022-12-11T06:52:04;8.77;;;6.13;;
54921;SDS011;40824;45.116;21.296;2022-12-11T06:54:30;10.35;;;7.28;;
54921;SDS011;40824;45.116;21.296;2022-12-11T06:57:00;7.82;;;6.40;;
54921;SDS011;40824;45.116;21.296;2022-12-11T06:59:36;9.20;;;6.68;;
54921;SDS011;40824;45.116;21.296;2022-12-11T07:02:08;8.88;;;6.22;;
54921;SDS011;40824;45.116;21.296;2022-12-11T07:04:51;8.35;;;5.68;;
54921;SDS011;40824;45.116;21.296;2022-12-11T07:07:20;6.57;;;5.00;;
54921;SDS011;40824;45.116;21.296;2022-12-11T07:10:16;5.97;;;4.70;;
54921;SDS011;40824;45.116;21.296;2022-12-11T07:12:41;7.35;;;6.03;;
54921;SDS011;40824;45.116;21.296;2022-12-11T07:15:08;9.88;;;6.63;;
54921;SDS011;40824;45.116;21.296;2022-12-11T07:17:43;13.70;;;8.35;;
54921;SDS011;40824;45.116;21.296;2022-12-11T07:22:45;11.63;;;8.70;;
54921;SDS011;40824;45.116;21.296;2022-12-11T07:25:23;14.43;;;9.50;;
54921;SDS011;40824;45.116;21.296;2022-12-11T07:27:52;15.48;;;8.65;;
54921;SDS011;40824;45.116;21.296;2022-12-11T07:30:18;10.70;;;8.18;;
54921;SDS011;40824;45.116;21.296;2022-12-11T07:32:44;11.05;;;7.10;;
54921;SDS011;40824;45.116;21.296;2022-12-11T07:35:11;12.00;;;7.90;;
54921;SDS011;40824;45.116;21.296;2022-12-11T07:37:42;13.90;;;8.05;;
54921;SDS011;40824;45.116;21.296;2022-12-11T07:40:12;12.85;;;7.97;;
54921;SDS011;40824;45.116;21.296;2022-12-11T07:42:40;17.83;;;9.98;;
54921;SDS011;40824;45.116;21.296;2022-12-11T07:45:07;11.65;;;8.07;;
54921;SDS011;40824;45.116;21.296;2022-12-11T07:47:33;17.42;;;10.13;;
54921;SDS011;40824;45.116;21.296;2022-12-11T07:49:59;11.85;;;7.70;;
54921;SDS011;40824;45.116;21.296;2022-12-11T07:52:28;11.48;;;7.93;;
54921;SDS011;40824;45.116;21.296;2022-12-11T07:54:54;12.88;;;7.43;;
54921;SDS011;40824;45.116;21.296;2022-12-11T07:57:23;14.18;;;8.63;;
54921;SDS011;40824;45.116;21.296;2022-12-11T07:59:49;12.55;;;8.52;;
54921;SDS011;40824;45.116;21.296;2022-12-11T08:02:15;11.98;;;8.98;;
54921;SDS011;40824;45.116;21.296;2022-12-11T08:04:41;14.68;;;10.45;;
54921;SDS011;40824;45.116;21.296;2022-12-11T08:07:07;16.05;;;10.60;;
54921;SDS011;40824;45.116;21.296;2022-12-11T08:09:33;13.85;;;9.63;;
54921;SDS011;40824;45.116;21.296;2022-12-11T08:12:00;15.10;;;8.80;;
54921;SDS011;40824;45.116;21.296;2022-12-11T08:14:26;10.68;;;7.97;;
54921;SDS011;40824;45.116;21.296;2022-12-11T08:16:52;11.63;;;8.00;;
54921;SDS011;40824;45.116;21.296;2022-12-11T08:19:18;8.93;;;7.25;;
54921;SDS011;40824;45.116;21.296;2022-12-11T08:21:47;12.02;;;8.25;;
54921;SDS011;40824;45.116;21.296;2022-12-11T08:24:14;17.08;;;10.85;;
54921;SDS011;40824;45.116;21.296;2022-12-11T08:26:44;16.35;;;11.73;;
54921;SDS011;40824;45.116;21.296;2022-12-11T08:29:10;21.33;;;12.50;;
54921;SDS011;40824;45.116;21.296;2022-12-11T08:31:37;18.27;;;11.90;;
54921;SDS011;40824;45.116;21.296;2022-12-11T08:34:04;15.27;;;11.07;;
54921;SDS011;40824;45.116;21.296;2022-12-11T08:36:30;18.67;;;12.32;;
54921;SDS011;40824;45.116;21.296;2022-12-11T08:38:59;17.77;;;11.80;;
54921;SDS011;40824;45.116;21.296;2022-12-11T08:41:26;20.50;;;13.73;;
54921;SDS011;40824;45.116;21.296;2022-12-11T08:43:53;20.65;;;13.13;;
54921;SDS011;40824;45.116;21.296;2022-12-11T08:46:25;21.30;;;13.50;;
54921;SDS011;40824;45.116;21.296;2022-12-11T08:48:54;19.48;;;14.73;;
54921;SDS011;40824;45.116;21.296;2022-12-11T08:51:23;18.40;;;11.85;;
54921;SDS011;40824;45.116;21.296;2022-12-11T08:53:50;16.63;;;12.38;;
54921;SDS011;40824;45.116;21.296;2022-12-11T08:56:17;18.05;;;12.95;;
54921;SDS011;40824;45.116;21.296;2022-12-11T08:58:44;17.45;;;11.20;;
54921;SDS011;40824;45.116;21.296;2022-12-11T09:01:12;15.32;;;11.18;;
54921;SDS011;40824;45.116;21.296;2022-12-11T09:03:38;15.73;;;11.77;;
54921;SDS011;40824;45.116;21.296;2022-12-11T09:06:05;18.55;;;12.50;;
54921;SDS011;40824;45.116;21.296;2022-12-11T09:08:32;19.92;;;14.02;;
54921;SDS011;40824;45.116;21.296;2022-12-11T09:11:09;17.55;;;13.45;;
54921;SDS011;40824;45.116;21.296;2022-12-11T09:13:35;18.50;;;13.15;;
54921;SDS011;40824;45.116;21.296;2022-12-11T09:16:03;22.05;;;15.85;;
54921;SDS011;40824;45.116;21.296;2022-12-11T09:18:29;20.05;;;15.48;;
54921;SDS011;40824;45.116;21.296;2022-12-11T09:20:59;18.13;;;13.68;;
54921;SDS011;40824;45.116;21.296;2022-12-11T09:23:25;18.50;;;14.15;;
54921;SDS011;40824;45.116;21.296;2022-12-11T09:25:52;20.45;;;14.48;;
54921;SDS011;40824;45.116;21.296;2022-12-11T09:28:18;19.83;;;14.60;;
54921;SDS011;40824;45.116;21.296;2022-12-11T09:30:44;19.15;;;14.77;;
54921;SDS011;40824;45.116;21.296;2022-12-11T09:33:10;19.48;;;13.68;;
54921;SDS011;40824;45.116;21.296;2022-12-11T09:35:36;19.55;;;13.48;;
54921;SDS011;40824;45.116;21.296;2022-12-11T09:38:02;16.77;;;12.48;;
54921;SDS011;40824;45.116;21.296;2022-12-11T09:40:30;16.92;;;12.38;;
54921;SDS011;40824;45.116;21.296;2022-12-11T09:43:00;20.90;;;15.07;;
54921;SDS011;40824;45.116;21.296;2022-12-11T09:45:28;16.33;;;12.95;;
54921;SDS011;40824;45.116;21.296;2022-12-11T09:47:54;16.70;;;12.88;;
54921;SDS011;40824;45.116;21.296;2022-12-11T09:50:22;17.23;;;12.77;;
54921;SDS011;40824;45.116;21.296;2022-12-11T09:55:24;16.65;;;12.20;;
54921;SDS011;40824;45.116;21.296;2022-12-11T10:05:35;16.17;;;12.00;;
54921;SDS011;40824;45.116;21.296;2022-12-11T10:10:42;13.98;;;11.05;;
54921;SDS011;40824;45.116;21.296;2022-12-11T10:13:15;17.63;;;12.98;;
54921;SDS011;40824;45.116;21.296;2022-12-11T10:18:15;13.60;;;10.73;;
54921;SDS011;40824;45.116;21.296;2022-12-11T10:20:42;13.88;;;11.35;;
54921;SDS011;40824;45.116;21.296;2022-12-11T10:23:31;15.18;;;10.77;;
54921;SDS011;40824;45.116;21.296;2022-12-11T10:26:04;14.18;;;10.85;;
54921;SDS011;40824;45.116;21.296;2022-12-11T10:28:31;21.13;;;14.07;;
54921;SDS011;40824;45.116;21.296;2022-12-11T10:35:56;20.75;;;14.95;;
54921;SDS011;40824;45.116;21.296;2022-12-11T10:38:41;19.33;;;14.27;;
54921;SDS011;40824;45.116;21.296;2022-12-11T10:41:11;22.10;;;16.98;;
54921;SDS011;40824;45.116;21.296;2022-12-11T10:46:11;17.00;;;12.38;;
54921;SDS011;40824;45.116;21.296;2022-12-11T10:49:17;17.50;;;11.88;;
54921;SDS011;40824;45.116;21.296;2022-12-11T10:51:34;33.35;;;21.48;;
54921;SDS011;40824;45.116;21.296;2022-12-11T10:54:05;34.50;;;22.00;;
54921;SDS011;40824;45.116;21.296;2022-12-11T10:56:33;23.75;;;16.40;;
54921;SDS011;40824;45.116;21.296;2022-12-11T10:59:01;24.45;;;16.65;;
54921;SDS011;40824;45.116;21.296;2022-12-11T11:01:27;24.48;;;16.08;;
54921;SDS011;40824;45.116;21.296;2022-12-11T11:03:58;21.17;;;14.82;;
54921;SDS011;40824;45.116;21.296;2022-12-11T11:06:25;21.52;;;14.90;;
54921;SDS011;40824;45.116;21.296;2022-12-11T11:08:53;21.50;;;14.77;;
54921;SDS011;40824;45.116;21.296;2022-12-11T11:11:29;17.48;;;12.85;;
54921;SDS011;40824;45.116;21.296;2022-12-11T11:16:36;22.30;;;15.98;;
54921;SDS011;40824;45.116;21.296;2022-12-11T11:19:02;22.83;;;16.20;;
54921;SDS011;40824;45.116;21.296;2022-12-11T11:21:29;20.58;;;14.30;;
54921;SDS011;40824;45.116;21.296;2022-12-11T11:23:55;18.30;;;14.27;;
54921;SDS011;40824;45.116;21.296;2022-12-11T11:26:22;21.33;;;15.77;;
54921;SDS011;40824;45.116;21.296;2022-12-11T11:31:15;24.48;;;17.52;;
54921;SDS011;40824;45.116;21.296;2022-12-11T11:33:59;24.88;;;17.98;;
54921;SDS011;40824;45.116;21.296;2022-12-11T11:36:29;26.45;;;17.83;;
54921;SDS011;40824;45.116;21.296;2022-12-11T11:41:36;26.20;;;17.92;;
54921;SDS011;40824;45.116;21.296;2022-12-11T11:44:07;22.42;;;15.40;;
54921;SDS011;40824;45.116;21.296;2022-12-11T11:51:33;26.73;;;16.58;;
54921;SDS011;40824;45.116;21.296;2022-12-11T11:54:02;23.55;;;16.02;;
54921;SDS011;40824;45.116;21.296;2022-12-11T11:56:33;22.90;;;15.25;;
54921;SDS011;40824;45.116;21.296;2022-12-11T12:01:36;21.83;;;15.55;;
54921;SDS011;40824;45.116;21.296;2022-12-11T12:04:02;25.50;;;16.90;;
54921;SDS011;40824;45.116;21.296;2022-12-11T12:09:02;25.40;;;17.27;;
54921;SDS011;40824;45.116;21.296;2022-12-11T12:11:45;22.65;;;15.48;;
54921;SDS011;40824;45.116;21.296;2022-12-11T12:21:55;25.25;;;15.63;;
54921;SDS011;40824;45.116;21.296;2022-12-11T12:26:52;22.98;;;15.25;;
54921;SDS011;40824;45.116;21.296;2022-12-11T12:29:58;24.85;;;17.52;;
54921;SDS011;40824;45.116;21.296;2022-12-11T12:37:21;27.63;;;18.63;;
54921;SDS011;40824;45.116;21.296;2022-12-11T12:39:58;27.50;;;18.67;;
54921;SDS011;40824;45.116;21.296;2022-12-11T12:44:58;29.65;;;19.02;;
54921;SDS011;40824;45.116;21.296;2022-12-11T12:47:26;25.92;;;16.65;;
54921;SDS011;40824;45.116;21.296;2022-12-11T12:49:53;26.30;;;18.50;;
54921;SDS011;40824;45.116;21.296;2022-12-11T12:52:30;27.55;;;18.15;;
54921;SDS011;40824;45.116;21.296;2022-12-11T12:54:57;33.50;;;22.50;;
54921;SDS011;40824;45.116;21.296;2022-12-11T12:57:57;38.88;;;23.88;;
54921;SDS011;40824;45.116;21.296;2022-12-11T13:00:28;42.88;;;26.60;;
54921;SDS011;40824;45.116;21.296;2022-12-11T13:02:55;32.63;;;22.25;;
54921;SDS011;40824;45.116;21.296;2022-12-11T13:05:26;28.52;;;20.83;;
54921;SDS011;40824;45.116;21.296;2022-12-11T13:07:54;38.42;;;22.40;;
54921;SDS011;40824;45.116;21.296;2022-12-11T13:12:47;23.38;;;16.33;;
54921;SDS011;40824;45.116;21.296;2022-12-11T13:15:28;26.67;;;18.63;;
54921;SDS011;40824;45.116;21.296;2022-12-11T13:17:55;27.42;;;18.33;;
54921;SDS011;40824;45.116;21.296;2022-12-11T13:20:24;26.75;;;18.08;;
54921;SDS011;40824;45.116;21.296;2022-12-11T13:33:43;34.05;;;20.40;;
54921;SDS011;40824;45.116;21.296;2022-12-11T13:38:37;34.83;;;20.40;;
54921;SDS011;40824;45.116;21.296;2022-12-11T13:41:08;35.35;;;19.80;;
54921;SDS011;40824;45.116;21.296;2022-12-11T13:43:35;28.02;;;18.90;;
54921;SDS011;40824;45.116;21.296;2022-12-11T13:46:04;32.20;;;21.33;;
54921;SDS011;40824;45.116;21.296;2022-12-11T13:48:38;38.35;;;22.73;;
54921;SDS011;40824;45.116;21.296;2022-12-11T13:51:05;48.00;;;31.23;;
54921;SDS011;40824;45.116;21.296;2022-12-11T13:53:31;92.10;;;55.00;;
54921;SDS011;40824;45.116;21.296;2022-12-11T13:55:58;54.60;;;32.15;;
54921;SDS011;40824;45.116;21.296;2022-12-11T13:58:25;84.97;;;51.47;;
54921;SDS011;40824;45.116;21.296;2022-12-11T14:01:01;177.00;;;115.97;;
54921;SDS011;40824;45.116;21.296;2022-12-11T14:03:29;51.75;;;37.05;;
54921;SDS011;40824;45.116;21.296;2022-12-11T14:05:56;41.72;;;28.92;;
54921;SDS011;40824;45.116;21.296;2022-12-11T14:08:24;51.97;;;36.30;;
54921;SDS011;40824;45.116;21.296;2022-12-11T14:10:52;47.25;;;31.73;;
54921;SDS011;40824;45.116;21.296;2022-12-11T14:13:40;49.45;;;36.28;;
54921;SDS011;40824;45.116;21.296;2022-12-11T14:16:06;40.38;;;26.90;;
54921;SDS011;40824;45.116;21.296;2022-12-11T14:18:32;40.75;;;25.70;;
54921;SDS011;40824;45.116;21.296;2022-12-11T14:21:03;38.30;;;24.08;;
54921;SDS011;40824;45.116;21.296;2022-12-11T14:23:30;40.15;;;24.20;;
54921;SDS011;40824;45.116;21.296;2022-12-11T14:26:14;44.97;;;30.70;;
54921;SDS011;40824;45.116;21.296;2022-12-11T14:28:41;40.00;;;25.15;;
54921;SDS011;40824;45.116;21.296;2022-12-11T14:31:08;35.90;;;22.20;;
54921;SDS011;40824;45.116;21.296;2022-12-11T14:33:37;31.88;;;19.67;;
54921;SDS011;40824;45.116;21.296;2022-12-11T14:36:05;28.60;;;17.48;;
54921;SDS011;40824;45.116;21.296;2022-12-11T14:38:45;31.77;;;20.77;;
54921;SDS011;40824;45.116;21.296;2022-12-11T14:41:15;36.17;;;23.13;;
54921;SDS011;40824;45.116;21.296;2022-12-11T14:43:45;52.00;;;36.20;;
54921;SDS011;40824;45.116;21.296;2022-12-11T14:46:16;39.65;;;26.42;;
54921;SDS011;40824;45.116;21.296;2022-12-11T14:48:44;37.05;;;24.55;;
54921;SDS011;40824;45.116;21.296;2022-12-11T14:51:13;40.30;;;25.08;;
54921;SDS011;40824;45.116;21.296;2022-12-11T14:53:42;35.28;;;21.92;;
54921;SDS011;40824;45.116;21.296;2022-12-11T14:56:15;39.00;;;23.83;;
54921;SDS011;40824;45.116;21.296;2022-12-11T14:58:43;38.28;;;23.48;;
54921;SDS011;40824;45.116;21.296;2022-12-11T15:03:59;57.40;;;33.97;;
54921;SDS011;40824;45.116;21.296;2022-12-11T15:06:31;39.60;;;24.98;;
54921;SDS011;40824;45.116;21.296;2022-12-11T15:09:07;42.92;;;27.23;;
54921;SDS011;40824;45.116;21.296;2022-12-11T15:11:34;48.92;;;29.90;;
54921;SDS011;40824;45.116;21.296;2022-12-11T15:14:02;46.90;;;28.88;;
54921;SDS011;40824;45.116;21.296;2022-12-11T15:16:30;46.15;;;27.25;;
54921;SDS011;40824;45.116;21.296;2022-12-11T15:18:57;56.40;;;34.40;;
54921;SDS011;40824;45.116;21.296;2022-12-11T15:21:30;53.30;;;32.33;;
54921;SDS011;40824;45.116;21.296;2022-12-11T15:23:57;38.45;;;21.98;;
54921;SDS011;40824;45.116;21.296;2022-12-11T15:26:34;34.33;;;21.23;;
54921;SDS011;40824;45.116;21.296;2022-12-11T15:29:01;49.03;;;31.27;;
54921;SDS011;40824;45.116;21.296;2022-12-11T15:31:29;40.35;;;24.17;;
54921;SDS011;40824;45.116;21.296;2022-12-11T15:33:55;46.35;;;30.95;;
54921;SDS011;40824;45.116;21.296;2022-12-11T15:36:23;55.05;;;38.03;;
54921;SDS011;40824;45.116;21.296;2022-12-11T15:38:52;36.60;;;24.67;;
54921;SDS011;40824;45.116;21.296;2022-12-11T15:41:18;44.20;;;28.67;;
54921;SDS011;40824;45.116;21.296;2022-12-11T15:43:45;47.78;;;28.67;;
54921;SDS011;40824;45.116;21.296;2022-12-11T15:46:11;37.65;;;22.92;;
54921;SDS011;40824;45.116;21.296;2022-12-11T15:48:38;39.05;;;23.13;;
54921;SDS011;40824;45.116;21.296;2022-12-11T15:51:04;40.00;;;23.75;;
54921;SDS011;40824;45.116;21.296;2022-12-11T15:53:30;36.72;;;24.25;;
54921;SDS011;40824;45.116;21.296;2022-12-11T15:55:57;39.67;;;24.30;;
54921;SDS011;40824;45.116;21.296;2022-12-11T15:58:24;37.50;;;22.70;;
54921;SDS011;40824;45.116;21.296;2022-12-11T16:00:51;42.80;;;27.33;;
54921;SDS011;40824;45.116;21.296;2022-12-11T16:03:18;43.30;;;28.77;;
54921;SDS011;40824;45.116;21.296;2022-12-11T16:05:44;43.65;;;26.25;;
54921;SDS011;40824;45.116;21.296;2022-12-11T16:08:17;42.28;;;28.42;;
54921;SDS011;40824;45.116;21.296;2022-12-11T16:10:44;41.28;;;29.05;;
54921;SDS011;40824;45.116;21.296;2022-12-11T16:13:11;45.63;;;29.27;;
54921;SDS011;40824;45.116;21.296;2022-12-11T16:15:42;58.40;;;39.17;;
54921;SDS011;40824;45.116;21.296;2022-12-11T16:18:09;45.88;;;30.80;;
54921;SDS011;40824;45.116;21.296;2022-12-11T16:20:36;42.70;;;29.42;;
54921;SDS011;40824;45.116;21.296;2022-12-11T16:23:02;39.88;;;26.50;;
54921;SDS011;40824;45.116;21.296;2022-12-11T16:25:29;39.28;;;24.75;;